sensor_id;sensor_type;location;lat;lon;timestamp;temperature;humidity
27540;DHT22;15906;52.046;4.724;2023-12-20T00:01:41;6.90;99.90
27540;DHT22;15906;52.046;4.724;2023-12-20T00:04:07;6.90;99.90
27540;DHT22;15906;52.046;4.724;2023-12-20T00:06:32;6.80;99.90
27540;DHT22;15906;52.046;4.724;2023-12-20T00:08:58;6.90;99.90
27540;DHT22;15906;52.046;4.724;2023-12-20T00:11:24;6.90;99.90
27540;DHT22;15906;52.046;4.724;2023-12-20T00:13:49;6.90;99.90
27540;DHT22;15906;52.046;4.724;2023-12-20T00:16:15;6.80;99.90
27540;DHT22;15906;52.046;4.724;2023-12-20T00:18:41;6.80;99.90
27540;DHT22;15906;52.046;4.724;2023-12-20T00:21:06;6.90;99.90
27540;DHT22;15906;52.046;4.724;2023-12-20T00:23:32;6.80;99.90
27540;DHT22;15906;52.046;4.724;2023-12-20T00:25:58;6.90;99.90
27540;DHT22;15906;52.046;4.724;2023-12-20T00:28:23;6.90;99.90
27540;DHT22;15906;52.046;4.724;2023-12-20T00:30:49;6.90;99.90
27540;DHT22;15906;52.046;4.724;2023-12-20T00:33:14;6.90;99.90
27540;DHT22;15906;52.046;4.724;2023-12-20T00:35:40;6.90;99.90
27540;DHT22;15906;52.046;4.724;2023-12-20T00:38:05;6.90;99.90
27540;DHT22;15906;52.046;4.724;2023-12-20T00:40:32;6.90;99.90
27540;DHT22;15906;52.046;4.724;2023-12-20T00:42:58;6.90;99.90
27540;DHT22;15906;52.046;4.724;2023-12-20T00:45:24;6.90;99.90
27540;DHT22;15906;52.046;4.724;2023-12-20T00:47:49;7.00;99.90
27540;DHT22;15906;52.046;4.724;2023-12-20T00:50:15;7.00;99.90
27540;DHT22;15906;52.046;4.724;2023-12-20T00:52:40;6.90;99.90
27540;DHT22;15906;52.046;4.724;2023-12-20T00:55:06;6.90;99.90
27540;DHT22;15906;52.046;4.724;2023-12-20T00:57:32;7.10;99.90
27540;DHT22;15906;52.046;4.724;2023-12-20T00:59:57;7.10;99.90
27540;DHT22;15906;52.046;4.724;2023-12-20T01:02:23;7.10;99.90
27540;DHT22;15906;52.046;4.724;2023-12-20T01:04:48;7.10;99.90
27540;DHT22;15906;52.046;4.724;2023-12-20T01:07:14;7.10;99.90
27540;DHT22;15906;52.046;4.724;2023-12-20T01:09:39;7.20;99.90
27540;DHT22;15906;52.046;4.724;2023-12-20T01:12:05;7.10;99.90
27540;DHT22;15906;52.046;4.724;2023-12-20T01:14:31;7.20;99.90
27540;DHT22;15906;52.046;4.724;2023-12-20T01:16:56;7.20;99.90
27540;DHT22;15906;52.046;4.724;2023-12-20T01:19:22;7.20;99.90
27540;DHT22;15906;52.046;4.724;2023-12-20T01:21:49;7.20;99.90
27540;DHT22;15906;52.046;4.724;2023-12-20T01:24:14;7.20;99.90
27540;DHT22;15906;52.046;4.724;2023-12-20T01:26:40;7.30;99.90
27540;DHT22;15906;52.046;4.724;2023-12-20T01:29:05;7.30;99.90
27540;DHT22;15906;52.046;4.724;2023-12-20T01:31:31;7.30;99.90
27540;DHT22;15906;52.046;4.724;2023-12-20T01:33:57;7.40;99.90
27540;DHT22;15906;52.046;4.724;2023-12-20T01:36:22;7.40;99.90
27540;DHT22;15906;52.046;4.724;2023-12-20T01:38:48;7.40;99.90
27540;DHT22;15906;52.046;4.724;2023-12-20T01:41:13;7.40;99.90
27540;DHT22;15906;52.046;4.724;2023-12-20T01:43:39;7.40;99.90
27540;DHT22;15906;52.046;4.724;2023-12-20T01:46:04;7.30;99.90
27540;DHT22;15906;52.046;4.724;2023-12-20T01:48:30;7.30;99.90
27540;DHT22;15906;52.046;4.724;2023-12-20T01:50:59;7.30;99.90
27540;DHT22;15906;52.046;4.724;2023-12-20T01:53:26;7.30;99.90
27540;DHT22;15906;52.046;4.724;2023-12-20T01:55:55;7.30;99.90
27540;DHT22;15906;52.046;4.724;2023-12-20T01:58:22;7.40;99.90
27540;DHT22;15906;52.046;4.724;2023-12-20T02:00:48;7.40;99.90
27540;DHT22;15906;52.046;4.724;2023-12-20T02:03:14;7.50;99.90
27540;DHT22;15906;52.046;4.724;2023-12-20T02:05:40;7.50;99.90
27540;DHT22;15906;52.046;4.724;2023-12-20T02:08:07;7.50;99.90
27540;DHT22;15906;52.046;4.724;2023-12-20T02:10:32;7.50;99.90
27540;DHT22;15906;52.046;4.724;2023-12-20T02:12:58;7.50;99.90
27540;DHT22;15906;52.046;4.724;2023-12-20T02:15:24;7.50;99.90
27540;DHT22;15906;52.046;4.724;2023-12-20T02:17:50;7.50;99.90
27540;DHT22;15906;52.046;4.724;2023-12-20T02:20:16;7.50;99.90
27540;DHT22;15906;52.046;4.724;2023-12-20T02:22:41;7.50;99.90
27540;DHT22;15906;52.046;4.724;2023-12-20T02:25:07;7.50;99.90
27540;DHT22;15906;52.046;4.724;2023-12-20T02:27:33;7.50;99.90
27540;DHT22;15906;52.046;4.724;2023-12-20T02:29:59;7.50;99.90
27540;DHT22;15906;52.046;4.724;2023-12-20T02:32:25;7.50;99.90
27540;DHT22;15906;52.046;4.724;2023-12-20T02:34:51;7.60;99.90
27540;DHT22;15906;52.046;4.724;2023-12-20T02:37:17;7.50;99.90
27540;DHT22;15906;52.046;4.724;2023-12-20T02:39:43;7.60;99.90
27540;DHT22;15906;52.046;4.724;2023-12-20T02:42:08;7.60;99.90
27540;DHT22;15906;52.046;4.724;2023-12-20T02:44:34;7.60;99.90
27540;DHT22;15906;52.046;4.724;2023-12-20T02:46:59;7.60;99.90
27540;DHT22;15906;52.046;4.724;2023-12-20T02:49:25;7.60;99.90
27540;DHT22;15906;52.046;4.724;2023-12-20T02:51:50;7.50;99.90
27540;DHT22;15906;52.046;4.724;2023-12-20T02:54:16;7.50;99.90
27540;DHT22;15906;52.046;4.724;2023-12-20T02:56:41;7.40;99.90
27540;DHT22;15906;52.046;4.724;2023-12-20T02:59:07;7.40;99.90
27540;DHT22;15906;52.046;4.724;2023-12-20T03:01:34;7.40;99.90
27540;DHT22;15906;52.046;4.724;2023-12-20T03:04:00;7.30;99.90
27540;DHT22;15906;52.046;4.724;2023-12-20T03:06:26;7.30;99.90
27540;DHT22;15906;52.046;4.724;2023-12-20T03:08:51;7.40;99.90
27540;DHT22;15906;52.046;4.724;2023-12-20T03:11:17;7.40;99.90
27540;DHT22;15906;52.046;4.724;2023-12-20T03:13:43;7.40;99.90
27540;DHT22;15906;52.046;4.724;2023-12-20T03:16:12;7.40;99.90
27540;DHT22;15906;52.046;4.724;2023-12-20T03:18:38;7.40;99.90
27540;DHT22;15906;52.046;4.724;2023-12-20T03:21:04;7.50;99.90
27540;DHT22;15906;52.046;4.724;2023-12-20T03:23:30;7.50;99.90
27540;DHT22;15906;52.046;4.724;2023-12-20T03:25:58;7.50;99.90
27540;DHT22;15906;52.046;4.724;2023-12-20T03:28:23;7.50;99.90
27540;DHT22;15906;52.046;4.724;2023-12-20T03:30:49;7.50;99.90
27540;DHT22;15906;52.046;4.724;2023-12-20T03:33:15;7.60;99.90
27540;DHT22;15906;52.046;4.724;2023-12-20T03:35:41;7.50;99.90
27540;DHT22;15906;52.046;4.724;2023-12-20T03:38:07;7.60;99.90
27540;DHT22;15906;52.046;4.724;2023-12-20T03:40:32;7.60;99.90
27540;DHT22;15906;52.046;4.724;2023-12-20T03:42:58;7.60;99.90
27540;DHT22;15906;52.046;4.724;2023-12-20T03:45:24;7.60;99.90
27540;DHT22;15906;52.046;4.724;2023-12-20T03:47:49;7.60;99.90
27540;DHT22;15906;52.046;4.724;2023-12-20T03:50:15;7.60;99.90
27540;DHT22;15906;52.046;4.724;2023-12-20T03:52:41;7.50;99.90
27540;DHT22;15906;52.046;4.724;2023-12-20T03:55:06;7.50;99.90
27540;DHT22;15906;52.046;4.724;2023-12-20T03:57:32;7.50;99.90
27540;DHT22;15906;52.046;4.724;2023-12-20T03:59:57;7.40;99.90
27540;DHT22;15906;52.046;4.724;2023-12-20T04:02:23;7.50;99.90
27540;DHT22;15906;52.046;4.724;2023-12-20T04:04:49;7.50;99.90
27540;DHT22;15906;52.046;4.724;2023-12-20T04:07:14;7.50;99.90
27540;DHT22;15906;52.046;4.724;2023-12-20T04:09:41;7.60;99.90
27540;DHT22;15906;52.046;4.724;2023-12-20T04:12:06;7.60;99.90
27540;DHT22;15906;52.046;4.724;2023-12-20T04:14:32;7.60;99.90
27540;DHT22;15906;52.046;4.724;2023-12-20T04:16:58;7.60;99.90
27540;DHT22;15906;52.046;4.724;2023-12-20T04:19:23;7.50;99.90
27540;DHT22;15906;52.046;4.724;2023-12-20T04:21:49;7.60;99.90
27540;DHT22;15906;52.046;4.724;2023-12-20T04:24:15;7.60;99.90
27540;DHT22;15906;52.046;4.724;2023-12-20T04:26:40;7.60;99.90
27540;DHT22;15906;52.046;4.724;2023-12-20T04:29:06;7.60;99.90
27540;DHT22;15906;52.046;4.724;2023-12-20T04:31:31;7.60;99.90
27540;DHT22;15906;52.046;4.724;2023-12-20T04:33:57;7.70;99.90
27540;DHT22;15906;52.046;4.724;2023-12-20T04:36:22;7.70;99.90
27540;DHT22;15906;52.046;4.724;2023-12-20T04:38:48;7.60;99.90
27540;DHT22;15906;52.046;4.724;2023-12-20T04:41:14;7.60;99.90
27540;DHT22;15906;52.046;4.724;2023-12-20T04:43:44;7.60;99.90
27540;DHT22;15906;52.046;4.724;2023-12-20T04:46:09;7.60;99.90
27540;DHT22;15906;52.046;4.724;2023-12-20T04:48:35;7.40;99.90
27540;DHT22;15906;52.046;4.724;2023-12-20T04:51:01;7.40;99.90
27540;DHT22;15906;52.046;4.724;2023-12-20T04:53:26;7.40;99.90
27540;DHT22;15906;52.046;4.724;2023-12-20T04:55:52;7.40;99.90
27540;DHT22;15906;52.046;4.724;2023-12-20T04:58:18;7.50;99.90
27540;DHT22;15906;52.046;4.724;2023-12-20T05:00:44;7.50;99.90
27540;DHT22;15906;52.046;4.724;2023-12-20T05:03:09;7.50;99.90
27540;DHT22;15906;52.046;4.724;2023-12-20T05:05:35;7.50;99.90
27540;DHT22;15906;52.046;4.724;2023-12-20T05:08:01;7.60;99.90
27540;DHT22;15906;52.046;4.724;2023-12-20T05:10:26;7.50;99.90
27540;DHT22;15906;52.046;4.724;2023-12-20T05:12:53;7.60;99.90
27540;DHT22;15906;52.046;4.724;2023-12-20T05:15:19;7.50;99.90
27540;DHT22;15906;52.046;4.724;2023-12-20T05:17:44;7.60;99.90
27540;DHT22;15906;52.046;4.724;2023-12-20T05:20:10;7.60;99.90
27540;DHT22;15906;52.046;4.724;2023-12-20T05:22:36;7.60;99.90
27540;DHT22;15906;52.046;4.724;2023-12-20T05:25:01;7.50;99.90
27540;DHT22;15906;52.046;4.724;2023-12-20T05:27:27;7.60;99.90
27540;DHT22;15906;52.046;4.724;2023-12-20T05:29:52;7.60;99.90
27540;DHT22;15906;52.046;4.724;2023-12-20T05:32:18;7.70;99.90
27540;DHT22;15906;52.046;4.724;2023-12-20T05:34:44;7.70;99.90
27540;DHT22;15906;52.046;4.724;2023-12-20T05:37:09;7.80;99.90
27540;DHT22;15906;52.046;4.724;2023-12-20T05:39:35;7.80;99.90
27540;DHT22;15906;52.046;4.724;2023-12-20T05:42:00;7.80;99.90
27540;DHT22;15906;52.046;4.724;2023-12-20T05:44:26;7.80;99.90
27540;DHT22;15906;52.046;4.724;2023-12-20T05:46:51;7.90;99.90
27540;DHT22;15906;52.046;4.724;2023-12-20T05:49:17;7.80;99.90
27540;DHT22;15906;52.046;4.724;2023-12-20T05:51:42;7.90;99.90
27540;DHT22;15906;52.046;4.724;2023-12-20T05:54:09;7.90;99.90
27540;DHT22;15906;52.046;4.724;2023-12-20T05:56:35;7.90;99.90
27540;DHT22;15906;52.046;4.724;2023-12-20T05:59:00;7.90;99.90
27540;DHT22;15906;52.046;4.724;2023-12-20T06:01:26;7.90;99.90
27540;DHT22;15906;52.046;4.724;2023-12-20T06:03:51;8.00;99.90
27540;DHT22;15906;52.046;4.724;2023-12-20T06:06:17;7.90;99.90
27540;DHT22;15906;52.046;4.724;2023-12-20T06:08:43;7.90;99.90
27540;DHT22;15906;52.046;4.724;2023-12-20T06:11:09;8.00;99.90
27540;DHT22;15906;52.046;4.724;2023-12-20T06:13:34;8.00;99.90
27540;DHT22;15906;52.046;4.724;2023-12-20T06:16:01;8.10;99.90
27540;DHT22;15906;52.046;4.724;2023-12-20T06:18:26;8.00;99.90
27540;DHT22;15906;52.046;4.724;2023-12-20T06:20:52;8.00;99.90
27540;DHT22;15906;52.046;4.724;2023-12-20T06:23:17;8.10;99.90
27540;DHT22;15906;52.046;4.724;2023-12-20T06:25:44;8.10;99.90
27540;DHT22;15906;52.046;4.724;2023-12-20T06:28:09;8.20;99.90
27540;DHT22;15906;52.046;4.724;2023-12-20T06:30:36;8.10;99.90
27540;DHT22;15906;52.046;4.724;2023-12-20T06:33:01;8.10;99.90
27540;DHT22;15906;52.046;4.724;2023-12-20T06:35:27;8.20;99.90
27540;DHT22;15906;52.046;4.724;2023-12-20T06:37:52;8.20;99.90
27540;DHT22;15906;52.046;4.724;2023-12-20T06:40:18;8.20;99.90
27540;DHT22;15906;52.046;4.724;2023-12-20T06:42:44;8.10;99.90
27540;DHT22;15906;52.046;4.724;2023-12-20T06:45:10;8.20;99.90
27540;DHT22;15906;52.046;4.724;2023-12-20T06:47:35;8.20;99.90
27540;DHT22;15906;52.046;4.724;2023-12-20T06:50:01;8.30;99.90
27540;DHT22;15906;52.046;4.724;2023-12-20T06:52:26;8.20;99.90
27540;DHT22;15906;52.046;4.724;2023-12-20T06:54:52;8.20;99.90
27540;DHT22;15906;52.046;4.724;2023-12-20T06:57:18;8.30;99.90
27540;DHT22;15906;52.046;4.724;2023-12-20T06:59:45;8.20;99.90
27540;DHT22;15906;52.046;4.724;2023-12-20T07:02:10;8.20;99.90
27540;DHT22;15906;52.046;4.724;2023-12-20T07:04:40;8.20;99.90
27540;DHT22;15906;52.046;4.724;2023-12-20T07:07:06;8.20;99.90
27540;DHT22;15906;52.046;4.724;2023-12-20T07:09:32;8.10;99.90
27540;DHT22;15906;52.046;4.724;2023-12-20T07:11:58;8.20;99.90
27540;DHT22;15906;52.046;4.724;2023-12-20T07:14:24;8.20;99.90
27540;DHT22;15906;52.046;4.724;2023-12-20T07:16:50;8.20;99.90
27540;DHT22;15906;52.046;4.724;2023-12-20T07:19:15;8.20;99.90
27540;DHT22;15906;52.046;4.724;2023-12-20T07:21:41;8.20;99.90
27540;DHT22;15906;52.046;4.724;2023-12-20T07:24:06;8.20;99.90
27540;DHT22;15906;52.046;4.724;2023-12-20T07:26:32;8.20;99.90
27540;DHT22;15906;52.046;4.724;2023-12-20T07:28:59;8.10;99.90
27540;DHT22;15906;52.046;4.724;2023-12-20T07:31:24;8.10;99.90
27540;DHT22;15906;52.046;4.724;2023-12-20T07:33:50;8.10;99.90
27540;DHT22;15906;52.046;4.724;2023-12-20T07:36:16;8.20;99.90
27540;DHT22;15906;52.046;4.724;2023-12-20T07:38:41;8.10;99.90
27540;DHT22;15906;52.046;4.724;2023-12-20T07:41:12;8.00;99.90
27540;DHT22;15906;52.046;4.724;2023-12-20T07:43:38;8.00;99.90
27540;DHT22;15906;52.046;4.724;2023-12-20T07:46:07;8.00;99.90
27540;DHT22;15906;52.046;4.724;2023-12-20T07:48:37;7.90;99.90
27540;DHT22;15906;52.046;4.724;2023-12-20T07:51:06;7.90;99.90
27540;DHT22;15906;52.046;4.724;2023-12-20T07:53:33;8.00;99.90
27540;DHT22;15906;52.046;4.724;2023-12-20T07:55:59;8.00;99.90
27540;DHT22;15906;52.046;4.724;2023-12-20T07:58:25;8.00;99.90
27540;DHT22;15906;52.046;4.724;2023-12-20T08:00:50;8.10;99.90
27540;DHT22;15906;52.046;4.724;2023-12-20T08:03:16;8.10;99.90
27540;DHT22;15906;52.046;4.724;2023-12-20T08:05:41;8.10;99.90
27540;DHT22;15906;52.046;4.724;2023-12-20T08:08:07;8.10;99.90
27540;DHT22;15906;52.046;4.724;2023-12-20T08:10:33;8.20;99.90
27540;DHT22;15906;52.046;4.724;2023-12-20T08:12:58;8.20;99.90
27540;DHT22;15906;52.046;4.724;2023-12-20T08:15:24;8.30;99.90
27540;DHT22;15906;52.046;4.724;2023-12-20T08:17:49;8.30;99.90
27540;DHT22;15906;52.046;4.724;2023-12-20T08:20:18;8.20;99.90
27540;DHT22;15906;52.046;4.724;2023-12-20T08:22:44;8.20;99.90
27540;DHT22;15906;52.046;4.724;2023-12-20T08:25:09;8.30;99.90
27540;DHT22;15906;52.046;4.724;2023-12-20T08:27:40;8.40;99.90
27540;DHT22;15906;52.046;4.724;2023-12-20T08:30:08;8.50;99.90
27540;DHT22;15906;52.046;4.724;2023-12-20T08:32:34;8.50;99.90
27540;DHT22;15906;52.046;4.724;2023-12-20T08:35:00;8.50;99.90
27540;DHT22;15906;52.046;4.724;2023-12-20T08:37:25;8.50;99.90
27540;DHT22;15906;52.046;4.724;2023-12-20T08:39:51;8.40;99.90
27540;DHT22;15906;52.046;4.724;2023-12-20T08:42:16;8.50;99.90
27540;DHT22;15906;52.046;4.724;2023-12-20T08:44:42;8.50;99.90
27540;DHT22;15906;52.046;4.724;2023-12-20T08:47:08;8.40;99.90
27540;DHT22;15906;52.046;4.724;2023-12-20T08:49:33;8.50;99.90
27540;DHT22;15906;52.046;4.724;2023-12-20T08:51:59;8.50;99.90
27540;DHT22;15906;52.046;4.724;2023-12-20T08:54:24;8.50;99.90
27540;DHT22;15906;52.046;4.724;2023-12-20T08:56:50;8.60;99.90
27540;DHT22;15906;52.046;4.724;2023-12-20T08:59:15;8.60;99.90
27540;DHT22;15906;52.046;4.724;2023-12-20T09:01:41;8.60;99.90
27540;DHT22;15906;52.046;4.724;2023-12-20T09:04:07;8.60;99.90
27540;DHT22;15906;52.046;4.724;2023-12-20T09:06:32;8.60;99.90
27540;DHT22;15906;52.046;4.724;2023-12-20T09:08:58;8.60;99.90
27540;DHT22;15906;52.046;4.724;2023-12-20T09:11:23;8.60;99.90
27540;DHT22;15906;52.046;4.724;2023-12-20T09:13:49;8.70;99.90
27540;DHT22;15906;52.046;4.724;2023-12-20T09:16:14;8.80;99.90
27540;DHT22;15906;52.046;4.724;2023-12-20T09:18:41;8.80;99.90
27540;DHT22;15906;52.046;4.724;2023-12-20T09:21:07;8.80;99.90
27540;DHT22;15906;52.046;4.724;2023-12-20T09:23:32;8.80;99.90
27540;DHT22;15906;52.046;4.724;2023-12-20T09:25:58;8.80;99.90
27540;DHT22;15906;52.046;4.724;2023-12-20T09:28:23;8.80;99.90
27540;DHT22;15906;52.046;4.724;2023-12-20T09:30:49;8.80;99.90
27540;DHT22;15906;52.046;4.724;2023-12-20T09:33:14;8.80;99.90
27540;DHT22;15906;52.046;4.724;2023-12-20T09:35:41;8.90;99.90
27540;DHT22;15906;52.046;4.724;2023-12-20T09:38:07;8.90;99.90
27540;DHT22;15906;52.046;4.724;2023-12-20T09:40:34;8.90;99.90
27540;DHT22;15906;52.046;4.724;2023-12-20T09:43:11;8.90;99.90
27540;DHT22;15906;52.046;4.724;2023-12-20T09:45:39;9.00;99.90
27540;DHT22;15906;52.046;4.724;2023-12-20T09:48:06;9.00;99.90
27540;DHT22;15906;52.046;4.724;2023-12-20T09:50:32;9.00;99.90
27540;DHT22;15906;52.046;4.724;2023-12-20T09:53:01;9.10;99.90
27540;DHT22;15906;52.046;4.724;2023-12-20T09:55:28;9.10;99.90
27540;DHT22;15906;52.046;4.724;2023-12-20T09:57:54;9.10;99.90
27540;DHT22;15906;52.046;4.724;2023-12-20T10:00:20;9.10;99.90
27540;DHT22;15906;52.046;4.724;2023-12-20T10:03:06;9.10;99.90
27540;DHT22;15906;52.046;4.724;2023-12-20T10:05:33;9.20;99.90
27540;DHT22;15906;52.046;4.724;2023-12-20T10:08:00;9.20;99.90
27540;DHT22;15906;52.046;4.724;2023-12-20T10:10:26;9.20;99.90
27540;DHT22;15906;52.046;4.724;2023-12-20T10:13:06;9.20;99.90
27540;DHT22;15906;52.046;4.724;2023-12-20T10:15:33;9.20;99.90
27540;DHT22;15906;52.046;4.724;2023-12-20T10:18:00;9.30;99.90
27540;DHT22;15906;52.046;4.724;2023-12-20T10:20:25;9.30;99.90
27540;DHT22;15906;52.046;4.724;2023-12-20T10:22:52;9.30;99.90
27540;DHT22;15906;52.046;4.724;2023-12-20T10:25:20;9.30;99.90
27540;DHT22;15906;52.046;4.724;2023-12-20T10:27:45;9.40;99.90
27540;DHT22;15906;52.046;4.724;2023-12-20T10:30:11;9.30;99.90
27540;DHT22;15906;52.046;4.724;2023-12-20T10:32:37;9.30;99.90
27540;DHT22;15906;52.046;4.724;2023-12-20T10:35:02;9.40;99.90
27540;DHT22;15906;52.046;4.724;2023-12-20T10:37:28;9.40;99.90
27540;DHT22;15906;52.046;4.724;2023-12-20T10:39:54;9.40;99.90
27540;DHT22;15906;52.046;4.724;2023-12-20T10:42:26;9.40;99.90
27540;DHT22;15906;52.046;4.724;2023-12-20T10:44:51;9.40;99.90
27540;DHT22;15906;52.046;4.724;2023-12-20T10:47:19;9.40;99.90
27540;DHT22;15906;52.046;4.724;2023-12-20T10:49:46;9.40;99.90
27540;DHT22;15906;52.046;4.724;2023-12-20T10:52:12;9.40;99.90
27540;DHT22;15906;52.046;4.724;2023-12-20T10:54:41;9.50;99.90
27540;DHT22;15906;52.046;4.724;2023-12-20T10:57:07;9.50;99.90
27540;DHT22;15906;52.046;4.724;2023-12-20T10:59:34;9.50;99.90
27540;DHT22;15906;52.046;4.724;2023-12-20T11:02:02;9.60;99.90
27540;DHT22;15906;52.046;4.724;2023-12-20T11:07:17;9.60;99.90
27540;DHT22;15906;52.046;4.724;2023-12-20T11:09:49;9.60;99.90
27540;DHT22;15906;52.046;4.724;2023-12-20T11:12:43;9.60;99.90
27540;DHT22;15906;52.046;4.724;2023-12-20T11:15:07;9.70;99.90
27540;DHT22;15906;52.046;4.724;2023-12-20T11:17:33;9.60;99.90
27540;DHT22;15906;52.046;4.724;2023-12-20T11:22:25;9.70;99.90
27540;DHT22;15906;52.046;4.724;2023-12-20T11:24:52;9.60;99.90
27540;DHT22;15906;52.046;4.724;2023-12-20T11:27:19;9.60;99.90
27540;DHT22;15906;52.046;4.724;2023-12-20T11:29:52;9.60;99.90
27540;DHT22;15906;52.046;4.724;2023-12-20T11:34:58;9.60;99.90
27540;DHT22;15906;52.046;4.724;2023-12-20T11:37:31;9.60;99.90
27540;DHT22;15906;52.046;4.724;2023-12-20T11:40:22;9.70;99.90
27540;DHT22;15906;52.046;4.724;2023-12-20T11:42:51;9.70;99.90
27540;DHT22;15906;52.046;4.724;2023-12-20T11:45:24;9.70;99.90
27540;DHT22;15906;52.046;4.724;2023-12-20T11:47:50;9.80;99.90
27540;DHT22;15906;52.046;4.724;2023-12-20T11:50:20;9.80;99.90
27540;DHT22;15906;52.046;4.724;2023-12-20T11:52:46;9.80;99.90
27540;DHT22;15906;52.046;4.724;2023-12-20T11:55:12;9.80;99.90
27540;DHT22;15906;52.046;4.724;2023-12-20T11:57:38;9.80;99.90
27540;DHT22;15906;52.046;4.724;2023-12-20T12:00:04;9.70;99.90
27540;DHT22;15906;52.046;4.724;2023-12-20T12:02:30;9.80;99.90
27540;DHT22;15906;52.046;4.724;2023-12-20T12:04:56;9.70;99.90
27540;DHT22;15906;52.046;4.724;2023-12-20T12:07:24;9.80;99.90
27540;DHT22;15906;52.046;4.724;2023-12-20T12:09:49;9.80;99.90
27540;DHT22;15906;52.046;4.724;2023-12-20T12:12:16;9.80;99.90
27540;DHT22;15906;52.046;4.724;2023-12-20T12:14:42;9.80;99.90
27540;DHT22;15906;52.046;4.724;2023-12-20T12:17:14;9.90;99.90
27540;DHT22;15906;52.046;4.724;2023-12-20T12:19:40;9.90;99.90
27540;DHT22;15906;52.046;4.724;2023-12-20T12:22:06;9.80;99.90
27540;DHT22;15906;52.046;4.724;2023-12-20T12:24:43;9.80;99.90
27540;DHT22;15906;52.046;4.724;2023-12-20T12:27:09;9.80;99.90
27540;DHT22;15906;52.046;4.724;2023-12-20T12:29:36;9.90;99.90
27540;DHT22;15906;52.046;4.724;2023-12-20T12:32:05;9.90;99.90
27540;DHT22;15906;52.046;4.724;2023-12-20T12:34:32;9.80;99.90
27540;DHT22;15906;52.046;4.724;2023-12-20T12:36:58;9.90;99.90
27540;DHT22;15906;52.046;4.724;2023-12-20T12:39:24;9.90;99.90
27540;DHT22;15906;52.046;4.724;2023-12-20T12:41:53;9.90;99.90
27540;DHT22;15906;52.046;4.724;2023-12-20T12:44:19;9.90;99.90
27540;DHT22;15906;52.046;4.724;2023-12-20T12:46:48;9.90;99.90
27540;DHT22;15906;52.046;4.724;2023-12-20T12:49:21;9.90;99.90
27540;DHT22;15906;52.046;4.724;2023-12-20T12:51:47;9.80;99.90
27540;DHT22;15906;52.046;4.724;2023-12-20T12:54:12;9.90;99.90
27540;DHT22;15906;52.046;4.724;2023-12-20T12:56:39;10.00;99.90
27540;DHT22;15906;52.046;4.724;2023-12-20T12:59:05;9.90;99.90
27540;DHT22;15906;52.046;4.724;2023-12-20T13:01:31;10.00;99.90
27540;DHT22;15906;52.046;4.724;2023-12-20T13:03:56;10.00;99.90
27540;DHT22;15906;52.046;4.724;2023-12-20T13:06:22;9.80;99.90
27540;DHT22;15906;52.046;4.724;2023-12-20T13:08:47;9.90;99.90
27540;DHT22;15906;52.046;4.724;2023-12-20T13:11:13;9.90;99.90
27540;DHT22;15906;52.046;4.724;2023-12-20T13:13:39;9.90;99.90
27540;DHT22;15906;52.046;4.724;2023-12-20T13:16:04;9.80;99.90
27540;DHT22;15906;52.046;4.724;2023-12-20T13:18:30;9.70;99.90
27540;DHT22;15906;52.046;4.724;2023-12-20T13:20:55;9.80;99.90
27540;DHT22;15906;52.046;4.724;2023-12-20T13:23:21;9.80;99.90
27540;DHT22;15906;52.046;4.724;2023-12-20T13:25:47;9.80;99.90
27540;DHT22;15906;52.046;4.724;2023-12-20T13:28:12;9.80;99.90
27540;DHT22;15906;52.046;4.724;2023-12-20T13:30:39;9.80;99.90
27540;DHT22;15906;52.046;4.724;2023-12-20T13:33:05;9.80;99.90
27540;DHT22;15906;52.046;4.724;2023-12-20T13:35:31;9.90;99.90
27540;DHT22;15906;52.046;4.724;2023-12-20T13:37:57;9.90;99.90
27540;DHT22;15906;52.046;4.724;2023-12-20T13:40:23;9.80;99.90
27540;DHT22;15906;52.046;4.724;2023-12-20T13:42:49;9.80;99.90
27540;DHT22;15906;52.046;4.724;2023-12-20T13:45:14;9.80;99.90
27540;DHT22;15906;52.046;4.724;2023-12-20T13:47:40;9.80;99.90
27540;DHT22;15906;52.046;4.724;2023-12-20T13:50:06;9.70;99.90
27540;DHT22;15906;52.046;4.724;2023-12-20T13:52:31;9.80;99.90
27540;DHT22;15906;52.046;4.724;2023-12-20T13:54:57;9.70;99.90
27540;DHT22;15906;52.046;4.724;2023-12-20T13:57:22;9.70;99.90
27540;DHT22;15906;52.046;4.724;2023-12-20T13:59:48;9.70;99.90
27540;DHT22;15906;52.046;4.724;2023-12-20T14:02:13;9.70;99.90
27540;DHT22;15906;52.046;4.724;2023-12-20T14:04:39;9.70;99.90
27540;DHT22;15906;52.046;4.724;2023-12-20T14:07:05;9.70;99.90
27540;DHT22;15906;52.046;4.724;2023-12-20T14:09:33;9.80;99.90
27540;DHT22;15906;52.046;4.724;2023-12-20T14:11:58;9.70;99.90
27540;DHT22;15906;52.046;4.724;2023-12-20T14:14:24;9.80;99.90
27540;DHT22;15906;52.046;4.724;2023-12-20T14:16:49;9.70;99.90
27540;DHT22;15906;52.046;4.724;2023-12-20T14:19:16;9.80;99.90
27540;DHT22;15906;52.046;4.724;2023-12-20T14:21:42;9.70;99.90
27540;DHT22;15906;52.046;4.724;2023-12-20T14:24:07;9.60;99.90
27540;DHT22;15906;52.046;4.724;2023-12-20T14:26:33;9.60;99.90
27540;DHT22;15906;52.046;4.724;2023-12-20T14:28:58;9.60;99.90
27540;DHT22;15906;52.046;4.724;2023-12-20T14:31:24;9.70;99.90
27540;DHT22;15906;52.046;4.724;2023-12-20T14:33:50;9.70;99.90
27540;DHT22;15906;52.046;4.724;2023-12-20T14:36:18;9.60;99.90
27540;DHT22;15906;52.046;4.724;2023-12-20T14:38:45;9.60;99.90
27540;DHT22;15906;52.046;4.724;2023-12-20T14:41:12;9.70;99.90
27540;DHT22;15906;52.046;4.724;2023-12-20T14:43:38;9.60;99.90
27540;DHT22;15906;52.046;4.724;2023-12-20T14:46:03;9.60;99.90
27540;DHT22;15906;52.046;4.724;2023-12-20T14:48:30;9.70;99.90
27540;DHT22;15906;52.046;4.724;2023-12-20T14:50:57;9.70;99.90
27540;DHT22;15906;52.046;4.724;2023-12-20T14:53:24;9.60;99.90
27540;DHT22;15906;52.046;4.724;2023-12-20T14:55:50;9.60;99.90
27540;DHT22;15906;52.046;4.724;2023-12-20T14:58:16;9.60;99.90
27540;DHT22;15906;52.046;4.724;2023-12-20T15:00:42;9.50;99.90
27540;DHT22;15906;52.046;4.724;2023-12-20T15:03:09;9.50;99.90
27540;DHT22;15906;52.046;4.724;2023-12-20T15:05:34;9.60;99.90
27540;DHT22;15906;52.046;4.724;2023-12-20T15:08:01;9.60;99.90
27540;DHT22;15906;52.046;4.724;2023-12-20T15:10:26;9.50;99.90
27540;DHT22;15906;52.046;4.724;2023-12-20T15:12:52;9.50;99.90
27540;DHT22;15906;52.046;4.724;2023-12-20T15:15:17;9.40;99.90
27540;DHT22;15906;52.046;4.724;2023-12-20T15:17:43;9.50;99.90
27540;DHT22;15906;52.046;4.724;2023-12-20T15:20:09;9.50;99.90
27540;DHT22;15906;52.046;4.724;2023-12-20T15:22:35;9.40;99.90
27540;DHT22;15906;52.046;4.724;2023-12-20T15:25:02;9.30;99.90
27540;DHT22;15906;52.046;4.724;2023-12-20T15:27:29;9.40;99.90
27540;DHT22;15906;52.046;4.724;2023-12-20T15:29:54;9.40;99.90
27540;DHT22;15906;52.046;4.724;2023-12-20T15:32:21;9.40;99.90
27540;DHT22;15906;52.046;4.724;2023-12-20T15:34:47;9.40;99.90
27540;DHT22;15906;52.046;4.724;2023-12-20T15:37:14;9.40;99.90
27540;DHT22;15906;52.046;4.724;2023-12-20T15:39:41;9.40;99.90
27540;DHT22;15906;52.046;4.724;2023-12-20T15:42:06;9.50;99.90
27540;DHT22;15906;52.046;4.724;2023-12-20T15:44:32;9.40;99.90
27540;DHT22;15906;52.046;4.724;2023-12-20T15:46:57;9.50;99.90